sensor_id;sensor_type;location;lat;lon;timestamp;P1;durP1;ratioP1;P2;durP2;ratioP2
77085;SDS011;66014;53.134;18.006;2023-02-21T00:00:39;3.20;;;1.10;;
77085;SDS011;66014;53.134;18.006;2023-02-21T00:03:23;2.90;;;1.00;;
77085;SDS011;66014;53.134;18.006;2023-02-21T00:06:08;4.20;;;1.10;;
77085;SDS011;66014;53.134;18.006;2023-02-21T00:08:53;4.00;;;1.30;;
77085;SDS011;66014;53.134;18.006;2023-02-21T00:11:41;3.10;;;1.40;;
77085;SDS011;66014;53.134;18.006;2023-02-21T00:14:27;3.50;;;1.10;;
77085;SDS011;66014;53.134;18.006;2023-02-21T00:17:11;4.80;;;1.50;;
77085;SDS011;66014;53.134;18.006;2023-02-21T00:19:55;7.40;;;1.30;;
77085;SDS011;66014;53.134;18.006;2023-02-21T00:22:40;3.30;;;1.10;;
77085;SDS011;66014;53.134;18.006;2023-02-21T00:25:25;2.50;;;0.90;;
77085;SDS011;66014;53.134;18.006;2023-02-21T00:28:10;1.70;;;0.70;;
77085;SDS011;66014;53.134;18.006;2023-02-21T00:30:55;4.00;;;0.90;;
77085;SDS011;66014;53.134;18.006;2023-02-21T00:33:40;3.20;;;0.90;;
77085;SDS011;66014;53.134;18.006;2023-02-21T00:36:24;2.60;;;1.10;;
77085;SDS011;66014;53.134;18.006;2023-02-21T00:39:09;2.90;;;1.20;;
77085;SDS011;66014;53.134;18.006;2023-02-21T00:41:53;4.30;;;1.50;;
77085;SDS011;66014;53.134;18.006;2023-02-21T00:44:38;7.30;;;1.50;;
77085;SDS011;66014;53.134;18.006;2023-02-21T00:47:22;4.80;;;1.40;;
77085;SDS011;66014;53.134;18.006;2023-02-21T00:50:07;4.40;;;0.80;;
77085;SDS011;66014;53.134;18.006;2023-02-21T00:52:51;3.10;;;0.80;;
77085;SDS011;66014;53.134;18.006;2023-02-21T00:55:35;3.30;;;0.90;;
77085;SDS011;66014;53.134;18.006;2023-02-21T00:58:20;3.50;;;0.70;;
77085;SDS011;66014;53.134;18.006;2023-02-21T01:01:05;4.40;;;0.90;;
77085;SDS011;66014;53.134;18.006;2023-02-21T01:03:50;4.40;;;0.70;;
77085;SDS011;66014;53.134;18.006;2023-02-21T01:06:35;3.70;;;0.90;;
77085;SDS011;66014;53.134;18.006;2023-02-21T01:09:19;5.40;;;1.30;;
77085;SDS011;66014;53.134;18.006;2023-02-21T01:12:04;7.80;;;1.40;;
77085;SDS011;66014;53.134;18.006;2023-02-21T01:14:48;3.00;;;0.80;;
77085;SDS011;66014;53.134;18.006;2023-02-21T01:17:33;5.30;;;0.90;;
77085;SDS011;66014;53.134;18.006;2023-02-21T01:20:18;4.20;;;0.70;;
77085;SDS011;66014;53.134;18.006;2023-02-21T01:23:05;7.50;;;1.70;;
77085;SDS011;66014;53.134;18.006;2023-02-21T01:25:49;5.80;;;1.10;;
77085;SDS011;66014;53.134;18.006;2023-02-21T01:28:34;3.00;;;1.00;;
77085;SDS011;66014;53.134;18.006;2023-02-21T01:31:20;6.10;;;1.00;;
77085;SDS011;66014;53.134;18.006;2023-02-21T01:34:04;7.20;;;1.20;;
77085;SDS011;66014;53.134;18.006;2023-02-21T01:36:50;7.80;;;1.20;;
77085;SDS011;66014;53.134;18.006;2023-02-21T01:39:35;11.40;;;1.70;;
77085;SDS011;66014;53.134;18.006;2023-02-21T01:42:19;7.70;;;1.20;;
77085;SDS011;66014;53.134;18.006;2023-02-21T01:45:39;7.20;;;1.30;;
77085;SDS011;66014;53.134;18.006;2023-02-21T01:48:24;6.60;;;1.20;;
77085;SDS011;66014;53.134;18.006;2023-02-21T01:51:11;7.00;;;1.30;;
77085;SDS011;66014;53.134;18.006;2023-02-21T01:54:00;3.80;;;1.10;;
77085;SDS011;66014;53.134;18.006;2023-02-21T01:56:44;5.90;;;1.00;;
77085;SDS011;66014;53.134;18.006;2023-02-21T01:59:29;9.30;;;1.50;;
77085;SDS011;66014;53.134;18.006;2023-02-21T02:02:30;5.50;;;1.40;;
77085;SDS011;66014;53.134;18.006;2023-02-21T02:05:25;8.80;;;1.30;;
77085;SDS011;66014;53.134;18.006;2023-02-21T02:08:11;8.70;;;1.90;;
77085;SDS011;66014;53.134;18.006;2023-02-21T02:11:09;11.70;;;1.40;;
77085;SDS011;66014;53.134;18.006;2023-02-21T02:17:08;5.80;;;1.20;;
77085;SDS011;66014;53.134;18.006;2023-02-21T02:34:58;6.50;;;1.00;;
77085;SDS011;66014;53.134;18.006;2023-02-21T02:37:34;8.60;;;1.20;;
77085;SDS011;66014;53.134;18.006;2023-02-21T02:43:53;11.30;;;1.20;;
77085;SDS011;66014;53.134;18.006;2023-02-21T02:48:57;9.00;;;1.70;;
77085;SDS011;66014;53.134;18.006;2023-02-21T02:51:27;9.30;;;1.40;;
77085;SDS011;66014;53.134;18.006;2023-02-21T02:53:54;9.20;;;1.60;;
77085;SDS011;66014;53.134;18.006;2023-02-21T02:56:20;9.60;;;1.90;;
77085;SDS011;66014;53.134;18.006;2023-02-21T02:58:52;6.50;;;1.10;;
77085;SDS011;66014;53.134;18.006;2023-02-21T03:04:05;8.10;;;1.80;;
77085;SDS011;66014;53.134;18.006;2023-02-21T03:09:19;6.90;;;1.10;;
77085;SDS011;66014;53.134;18.006;2023-02-21T03:12:02;9.70;;;1.70;;
77085;SDS011;66014;53.134;18.006;2023-02-21T03:14:37;6.40;;;1.50;;
77085;SDS011;66014;53.134;18.006;2023-02-21T03:17:09;7.60;;;1.50;;
77085;SDS011;66014;53.134;18.006;2023-02-21T03:19:38;6.60;;;1.80;;
77085;SDS011;66014;53.134;18.006;2023-02-21T03:22:18;10.10;;;1.80;;
77085;SDS011;66014;53.134;18.006;2023-02-21T03:24:48;5.60;;;1.30;;
77085;SDS011;66014;53.134;18.006;2023-02-21T03:27:15;9.50;;;1.40;;
77085;SDS011;66014;53.134;18.006;2023-02-21T03:29:44;7.50;;;1.50;;
77085;SDS011;66014;53.134;18.006;2023-02-21T03:32:25;2.90;;;0.90;;
77085;SDS011;66014;53.134;18.006;2023-02-21T03:34:55;5.80;;;1.30;;
77085;SDS011;66014;53.134;18.006;2023-02-21T03:37:28;8.10;;;1.70;;
77085;SDS011;66014;53.134;18.006;2023-02-21T03:39:57;14.70;;;2.90;;
77085;SDS011;66014;53.134;18.006;2023-02-21T03:42:24;10.20;;;2.10;;
77085;SDS011;66014;53.134;18.006;2023-02-21T03:44:49;12.10;;;1.80;;
77085;SDS011;66014;53.134;18.006;2023-02-21T03:47:15;10.80;;;2.20;;
77085;SDS011;66014;53.134;18.006;2023-02-21T03:49:49;11.00;;;2.10;;
77085;SDS011;66014;53.134;18.006;2023-02-21T03:52:15;6.70;;;1.70;;
77085;SDS011;66014;53.134;18.006;2023-02-21T03:54:41;6.60;;;1.60;;
77085;SDS011;66014;53.134;18.006;2023-02-21T03:57:07;5.30;;;1.30;;
77085;SDS011;66014;53.134;18.006;2023-02-21T03:59:34;8.10;;;1.60;;
77085;SDS011;66014;53.134;18.006;2023-02-21T04:02:01;13.20;;;3.60;;
77085;SDS011;66014;53.134;18.006;2023-02-21T04:04:27;12.80;;;5.00;;
77085;SDS011;66014;53.134;18.006;2023-02-21T04:06:56;11.00;;;2.30;;
77085;SDS011;66014;53.134;18.006;2023-02-21T04:09:22;10.80;;;2.30;;
77085;SDS011;66014;53.134;18.006;2023-02-21T04:11:53;6.30;;;2.00;;
77085;SDS011;66014;53.134;18.006;2023-02-21T04:14:19;9.50;;;2.00;;
77085;SDS011;66014;53.134;18.006;2023-02-21T04:16:46;8.00;;;1.70;;
77085;SDS011;66014;53.134;18.006;2023-02-21T04:19:12;10.10;;;1.90;;
77085;SDS011;66014;53.134;18.006;2023-02-21T04:21:38;8.40;;;1.40;;
77085;SDS011;66014;53.134;18.006;2023-02-21T04:24:04;7.40;;;1.80;;
77085;SDS011;66014;53.134;18.006;2023-02-21T04:26:30;8.90;;;1.70;;
77085;SDS011;66014;53.134;18.006;2023-02-21T04:28:56;13.20;;;2.10;;
77085;SDS011;66014;53.134;18.006;2023-02-21T04:31:22;10.20;;;2.00;;
77085;SDS011;66014;53.134;18.006;2023-02-21T04:33:49;7.50;;;1.30;;
77085;SDS011;66014;53.134;18.006;2023-02-21T04:36:15;15.00;;;1.80;;
77085;SDS011;66014;53.134;18.006;2023-02-21T04:38:41;7.70;;;1.80;;
77085;SDS011;66014;53.134;18.006;2023-02-21T04:41:07;9.00;;;1.70;;
77085;SDS011;66014;53.134;18.006;2023-02-21T04:43:37;7.40;;;1.50;;
77085;SDS011;66014;53.134;18.006;2023-02-21T04:46:03;6.30;;;1.50;;
77085;SDS011;66014;53.134;18.006;2023-02-21T04:48:29;7.90;;;1.50;;
77085;SDS011;66014;53.134;18.006;2023-02-21T04:50:54;10.30;;;2.00;;
77085;SDS011;66014;53.134;18.006;2023-02-21T04:53:23;5.30;;;1.20;;
77085;SDS011;66014;53.134;18.006;2023-02-21T04:55:49;11.70;;;2.00;;
77085;SDS011;66014;53.134;18.006;2023-02-21T04:58:15;11.30;;;1.80;;
77085;SDS011;66014;53.134;18.006;2023-02-21T05:00:41;14.40;;;1.70;;
77085;SDS011;66014;53.134;18.006;2023-02-21T05:03:07;7.30;;;1.40;;
77085;SDS011;66014;53.134;18.006;2023-02-21T05:05:33;7.70;;;1.40;;
77085;SDS011;66014;53.134;18.006;2023-02-21T05:07:59;8.10;;;2.00;;
77085;SDS011;66014;53.134;18.006;2023-02-21T05:10:25;13.30;;;2.00;;
77085;SDS011;66014;53.134;18.006;2023-02-21T05:12:51;11.00;;;2.20;;
77085;SDS011;66014;53.134;18.006;2023-02-21T05:15:17;6.30;;;1.40;;
77085;SDS011;66014;53.134;18.006;2023-02-21T05:17:43;9.40;;;1.90;;
77085;SDS011;66014;53.134;18.006;2023-02-21T05:20:10;8.60;;;1.70;;
77085;SDS011;66014;53.134;18.006;2023-02-21T05:22:38;8.40;;;1.90;;
77085;SDS011;66014;53.134;18.006;2023-02-21T05:25:07;10.80;;;1.70;;
77085;SDS011;66014;53.134;18.006;2023-02-21T05:27:46;8.70;;;1.60;;
77085;SDS011;66014;53.134;18.006;2023-02-21T05:30:14;14.90;;;2.60;;
77085;SDS011;66014;53.134;18.006;2023-02-21T05:32:42;12.70;;;2.20;;
77085;SDS011;66014;53.134;18.006;2023-02-21T05:35:10;13.90;;;3.70;;
77085;SDS011;66014;53.134;18.006;2023-02-21T05:37:46;9.50;;;2.30;;
77085;SDS011;66014;53.134;18.006;2023-02-21T05:40:15;7.10;;;1.90;;
77085;SDS011;66014;53.134;18.006;2023-02-21T05:42:42;9.30;;;2.70;;
77085;SDS011;66014;53.134;18.006;2023-02-21T05:45:09;8.20;;;2.30;;
77085;SDS011;66014;53.134;18.006;2023-02-21T05:47:36;15.60;;;2.40;;
77085;SDS011;66014;53.134;18.006;2023-02-21T05:50:02;5.60;;;1.70;;
77085;SDS011;66014;53.134;18.006;2023-02-21T05:52:32;9.00;;;1.80;;
77085;SDS011;66014;53.134;18.006;2023-02-21T05:54:58;4.50;;;1.10;;
77085;SDS011;66014;53.134;18.006;2023-02-21T05:57:24;9.00;;;1.70;;
77085;SDS011;66014;53.134;18.006;2023-02-21T05:59:50;10.70;;;2.10;;
77085;SDS011;66014;53.134;18.006;2023-02-21T06:02:16;8.50;;;1.70;;
77085;SDS011;66014;53.134;18.006;2023-02-21T06:04:43;9.20;;;1.70;;
77085;SDS011;66014;53.134;18.006;2023-02-21T06:07:09;12.50;;;3.50;;
77085;SDS011;66014;53.134;18.006;2023-02-21T06:09:35;10.10;;;2.00;;
77085;SDS011;66014;53.134;18.006;2023-02-21T06:12:00;7.90;;;2.10;;
77085;SDS011;66014;53.134;18.006;2023-02-21T06:14:26;13.70;;;4.80;;
77085;SDS011;66014;53.134;18.006;2023-02-21T06:16:54;7.30;;;2.10;;
77085;SDS011;66014;53.134;18.006;2023-02-21T06:19:19;8.80;;;2.50;;
77085;SDS011;66014;53.134;18.006;2023-02-21T06:21:45;10.10;;;2.50;;
77085;SDS011;66014;53.134;18.006;2023-02-21T06:24:11;10.50;;;2.40;;
77085;SDS011;66014;53.134;18.006;2023-02-21T06:26:38;12.90;;;2.70;;
77085;SDS011;66014;53.134;18.006;2023-02-21T06:29:05;17.90;;;3.60;;
77085;SDS011;66014;53.134;18.006;2023-02-21T06:31:31;9.60;;;3.80;;
77085;SDS011;66014;53.134;18.006;2023-02-21T06:33:58;15.80;;;3.40;;
77085;SDS011;66014;53.134;18.006;2023-02-21T06:36:27;12.50;;;2.80;;
77085;SDS011;66014;53.134;18.006;2023-02-21T06:38:54;10.80;;;2.80;;
77085;SDS011;66014;53.134;18.006;2023-02-21T06:41:23;16.20;;;3.50;;
77085;SDS011;66014;53.134;18.006;2023-02-21T06:43:52;14.00;;;2.20;;
77085;SDS011;66014;53.134;18.006;2023-02-21T06:46:20;15.50;;;3.60;;
77085;SDS011;66014;53.134;18.006;2023-02-21T06:48:49;10.00;;;2.20;;
77085;SDS011;66014;53.134;18.006;2023-02-21T06:51:16;7.10;;;1.60;;
77085;SDS011;66014;53.134;18.006;2023-02-21T06:53:43;7.20;;;2.00;;
77085;SDS011;66014;53.134;18.006;2023-02-21T06:56:20;16.20;;;3.30;;
77085;SDS011;66014;53.134;18.006;2023-02-21T06:58:53;12.40;;;2.20;;
77085;SDS011;66014;53.134;18.006;2023-02-21T07:01:19;12.80;;;2.40;;
77085;SDS011;66014;53.134;18.006;2023-02-21T07:03:48;11.70;;;2.30;;
77085;SDS011;66014;53.134;18.006;2023-02-21T07:06:14;11.30;;;2.20;;
77085;SDS011;66014;53.134;18.006;2023-02-21T07:08:40;11.50;;;3.10;;
77085;SDS011;66014;53.134;18.006;2023-02-21T07:11:08;13.20;;;2.70;;
77085;SDS011;66014;53.134;18.006;2023-02-21T07:13:34;9.10;;;2.30;;
77085;SDS011;66014;53.134;18.006;2023-02-21T07:16:00;12.30;;;2.60;;
77085;SDS011;66014;53.134;18.006;2023-02-21T07:18:27;11.90;;;2.80;;
77085;SDS011;66014;53.134;18.006;2023-02-21T07:20:59;12.90;;;3.40;;
77085;SDS011;66014;53.134;18.006;2023-02-21T07:23:28;10.20;;;2.50;;
77085;SDS011;66014;53.134;18.006;2023-02-21T07:25:55;6.50;;;2.00;;
77085;SDS011;66014;53.134;18.006;2023-02-21T07:28:21;6.80;;;1.80;;
77085;SDS011;66014;53.134;18.006;2023-02-21T07:30:50;13.90;;;2.50;;
77085;SDS011;66014;53.134;18.006;2023-02-21T07:33:16;14.30;;;2.80;;
77085;SDS011;66014;53.134;18.006;2023-02-21T07:35:42;11.90;;;2.50;;
77085;SDS011;66014;53.134;18.006;2023-02-21T07:38:08;9.40;;;2.20;;
77085;SDS011;66014;53.134;18.006;2023-02-21T07:40:59;15.70;;;4.20;;
77085;SDS011;66014;53.134;18.006;2023-02-21T07:43:27;14.00;;;2.70;;
77085;SDS011;66014;53.134;18.006;2023-02-21T07:45:56;15.70;;;2.50;;
77085;SDS011;66014;53.134;18.006;2023-02-21T07:48:22;7.50;;;2.00;;
77085;SDS011;66014;53.134;18.006;2023-02-21T07:50:48;13.20;;;1.90;;
77085;SDS011;66014;53.134;18.006;2023-02-21T07:53:14;12.10;;;2.20;;
77085;SDS011;66014;53.134;18.006;2023-02-21T07:55:42;9.90;;;1.80;;
77085;SDS011;66014;53.134;18.006;2023-02-21T07:58:08;13.50;;;3.60;;
77085;SDS011;66014;53.134;18.006;2023-02-21T08:00:34;14.30;;;4.80;;
77085;SDS011;66014;53.134;18.006;2023-02-21T08:03:00;16.30;;;3.00;;
77085;SDS011;66014;53.134;18.006;2023-02-21T08:05:26;18.70;;;3.30;;
77085;SDS011;66014;53.134;18.006;2023-02-21T08:07:52;11.20;;;2.40;;
77085;SDS011;66014;53.134;18.006;2023-02-21T08:10:19;11.30;;;3.10;;
77085;SDS011;66014;53.134;18.006;2023-02-21T08:12:48;16.00;;;3.30;;
77085;SDS011;66014;53.134;18.006;2023-02-21T08:15:15;16.10;;;3.80;;
77085;SDS011;66014;53.134;18.006;2023-02-21T08:17:42;18.10;;;5.20;;
77085;SDS011;66014;53.134;18.006;2023-02-21T08:20:08;15.90;;;3.00;;
77085;SDS011;66014;53.134;18.006;2023-02-21T08:22:36;8.80;;;2.10;;
77085;SDS011;66014;53.134;18.006;2023-02-21T08:25:03;10.70;;;2.40;;
77085;SDS011;66014;53.134;18.006;2023-02-21T08:27:29;12.80;;;4.20;;
77085;SDS011;66014;53.134;18.006;2023-02-21T08:29:55;13.00;;;3.10;;
77085;SDS011;66014;53.134;18.006;2023-02-21T08:32:21;10.00;;;3.00;;
77085;SDS011;66014;53.134;18.006;2023-02-21T08:34:47;12.50;;;2.80;;
77085;SDS011;66014;53.134;18.006;2023-02-21T08:37:14;20.90;;;5.00;;
77085;SDS011;66014;53.134;18.006;2023-02-21T08:39:51;12.80;;;4.00;;
77085;SDS011;66014;53.134;18.006;2023-02-21T08:42:18;21.20;;;5.80;;
77085;SDS011;66014;53.134;18.006;2023-02-21T08:44:45;9.20;;;3.30;;
77085;SDS011;66014;53.134;18.006;2023-02-21T08:47:12;9.30;;;3.50;;
77085;SDS011;66014;53.134;18.006;2023-02-21T08:49:38;14.20;;;3.20;;
77085;SDS011;66014;53.134;18.006;2023-02-21T08:52:06;9.70;;;3.50;;
77085;SDS011;66014;53.134;18.006;2023-02-21T08:54:32;15.30;;;3.70;;
77085;SDS011;66014;53.134;18.006;2023-02-21T08:56:59;9.20;;;2.50;;
77085;SDS011;66014;53.134;18.006;2023-02-21T08:59:24;12.60;;;2.60;;
77085;SDS011;66014;53.134;18.006;2023-02-21T09:01:53;11.80;;;2.40;;
77085;SDS011;66014;53.134;18.006;2023-02-21T09:04:20;13.40;;;3.30;;
77085;SDS011;66014;53.134;18.006;2023-02-21T09:06:51;14.60;;;2.90;;
77085;SDS011;66014;53.134;18.006;2023-02-21T09:09:18;12.60;;;3.00;;
77085;SDS011;66014;53.134;18.006;2023-02-21T09:11:45;14.70;;;3.60;;
77085;SDS011;66014;53.134;18.006;2023-02-21T09:14:13;11.60;;;2.70;;
77085;SDS011;66014;53.134;18.006;2023-02-21T09:16:47;9.40;;;2.10;;
77085;SDS011;66014;53.134;18.006;2023-02-21T09:22:11;15.70;;;3.40;;
77085;SDS011;66014;53.134;18.006;2023-02-21T09:24:37;12.30;;;2.90;;
77085;SDS011;66014;53.134;18.006;2023-02-21T09:27:04;17.00;;;3.00;;
77085;SDS011;66014;53.134;18.006;2023-02-21T09:29:31;14.80;;;4.60;;
77085;SDS011;66014;53.134;18.006;2023-02-21T09:31:59;12.90;;;3.40;;
77085;SDS011;66014;53.134;18.006;2023-02-21T09:34:26;12.70;;;3.20;;
77085;SDS011;66014;53.134;18.006;2023-02-21T09:36:53;13.80;;;4.10;;
77085;SDS011;66014;53.134;18.006;2023-02-21T09:39:21;22.80;;;7.50;;
77085;SDS011;66014;53.134;18.006;2023-02-21T09:41:48;10.10;;;2.50;;
77085;SDS011;66014;53.134;18.006;2023-02-21T09:44:20;21.00;;;6.50;;
77085;SDS011;66014;53.134;18.006;2023-02-21T09:51:51;10.60;;;2.70;;
77085;SDS011;66014;53.134;18.006;2023-02-21T09:56:50;19.60;;;5.40;;
77085;SDS011;66014;53.134;18.006;2023-02-21T09:59:20;16.70;;;5.80;;
77085;SDS011;66014;53.134;18.006;2023-02-21T10:01:49;13.80;;;3.80;;
77085;SDS011;66014;53.134;18.006;2023-02-21T10:10:30;20.00;;;6.50;;
77085;SDS011;66014;53.134;18.006;2023-02-21T10:19:08;36.20;;;12.90;;
77085;SDS011;66014;53.134;18.006;2023-02-21T10:21:43;13.30;;;4.90;;
77085;SDS011;66014;53.134;18.006;2023-02-21T10:24:14;14.80;;;4.00;;
77085;SDS011;66014;53.134;18.006;2023-02-21T10:32:23;24.80;;;9.10;;
77085;SDS011;66014;53.134;18.006;2023-02-21T10:34:50;17.90;;;4.80;;
77085;SDS011;66014;53.134;18.006;2023-02-21T10:43:12;11.90;;;2.90;;
77085;SDS011;66014;53.134;18.006;2023-02-21T10:52:08;20.20;;;7.10;;
77085;SDS011;66014;53.134;18.006;2023-02-21T10:54:37;15.60;;;4.10;;
77085;SDS011;66014;53.134;18.006;2023-02-21T10:57:05;12.60;;;3.00;;
77085;SDS011;66014;53.134;18.006;2023-02-21T10:59:35;15.00;;;3.70;;
77085;SDS011;66014;53.134;18.006;2023-02-21T11:05:15;29.40;;;8.30;;
77085;SDS011;66014;53.134;18.006;2023-02-21T11:07:57;21.80;;;6.50;;
77085;SDS011;66014;53.134;18.006;2023-02-21T11:13:00;25.60;;;6.70;;
77085;SDS011;66014;53.134;18.006;2023-02-21T11:15:31;18.30;;;4.10;;
77085;SDS011;66014;53.134;18.006;2023-02-21T11:18:02;27.10;;;5.50;;
77085;SDS011;66014;53.134;18.006;2023-02-21T11:20:40;22.80;;;7.50;;
77085;SDS011;66014;53.134;18.006;2023-02-21T11:33:53;23.50;;;6.60;;
77085;SDS011;66014;53.134;18.006;2023-02-21T11:36:28;22.80;;;5.70;;
77085;SDS011;66014;53.134;18.006;2023-02-21T11:41:49;20.20;;;6.10;;
77085;SDS011;66014;53.134;18.006;2023-02-21T11:45:04;22.90;;;6.90;;
77085;SDS011;66014;53.134;18.006;2023-02-21T11:47:16;15.90;;;4.60;;
77085;SDS011;66014;53.134;18.006;2023-02-21T11:52:57;26.70;;;5.20;;
77085;SDS011;66014;53.134;18.006;2023-02-21T11:56:05;17.60;;;4.60;;
77085;SDS011;66014;53.134;18.006;2023-02-21T11:59:00;24.30;;;6.50;;
77085;SDS011;66014;53.134;18.006;2023-02-21T12:07:27;15.60;;;3.40;;
77085;SDS011;66014;53.134;18.006;2023-02-21T12:10:01;22.70;;;4.30;;
77085;SDS011;66014;53.134;18.006;2023-02-21T12:21:33;16.80;;;4.50;;
77085;SDS011;66014;53.134;18.006;2023-02-21T12:27:01;17.70;;;3.90;;
77085;SDS011;66014;53.134;18.006;2023-02-21T12:44:12;15.50;;;4.20;;
77085;SDS011;66014;53.134;18.006;2023-02-21T12:47:26;22.90;;;6.80;;
77085;SDS011;66014;53.134;18.006;2023-02-21T12:52:51;17.80;;;4.50;;
77085;SDS011;66014;53.134;18.006;2023-02-21T12:55:29;14.30;;;3.20;;
77085;SDS011;66014;53.134;18.006;2023-02-21T12:58:31;10.80;;;2.60;;
77085;SDS011;66014;53.134;18.006;2023-02-21T13:01:06;15.30;;;2.90;;
77085;SDS011;66014;53.134;18.006;2023-02-21T13:06:47;18.70;;;4.20;;
77085;SDS011;66014;53.134;18.006;2023-02-21T13:15:19;15.50;;;5.40;;
77085;SDS011;66014;53.134;18.006;2023-02-21T13:17:22;19.70;;;5.70;;
77085;SDS011;66014;53.134;18.006;2023-02-21T13:19:54;17.90;;;4.00;;
77085;SDS011;66014;53.134;18.006;2023-02-21T13:22:27;20.00;;;5.30;;
77085;SDS011;66014;53.134;18.006;2023-02-21T13:25:49;21.70;;;6.30;;
77085;SDS011;66014;53.134;18.006;2023-02-21T13:28:27;18.40;;;4.80;;
77085;SDS011;66014;53.134;18.006;2023-02-21T13:31:00;13.60;;;3.80;;
77085;SDS011;66014;53.134;18.006;2023-02-21T13:33:31;19.30;;;4.00;;
77085;SDS011;66014;53.134;18.006;2023-02-21T13:36:01;19.60;;;3.60;;
77085;SDS011;66014;53.134;18.006;2023-02-21T13:38:34;20.50;;;4.30;;
77085;SDS011;66014;53.134;18.006;2023-02-21T13:41:07;18.50;;;4.00;;
77085;SDS011;66014;53.134;18.006;2023-02-21T13:43:36;12.60;;;3.50;;
77085;SDS011;66014;53.134;18.006;2023-02-21T13:46:55;18.90;;;3.40;;
77085;SDS011;66014;53.134;18.006;2023-02-21T13:59:55;29.40;;;10.60;;
77085;SDS011;66014;53.134;18.006;2023-02-21T14:08:25;13.50;;;3.40;;
77085;SDS011;66014;53.134;18.006;2023-02-21T14:11:19;24.30;;;6.60;;
77085;SDS011;66014;53.134;18.006;2023-02-21T14:14:02;27.90;;;7.90;;
77085;SDS011;66014;53.134;18.006;2023-02-21T14:17:04;21.30;;;4.20;;
77085;SDS011;66014;53.134;18.006;2023-02-21T14:19:35;14.00;;;4.60;;
77085;SDS011;66014;53.134;18.006;2023-02-21T14:29:38;15.40;;;4.00;;
77085;SDS011;66014;53.134;18.006;2023-02-21T14:34:59;15.90;;;3.70;;
77085;SDS011;66014;53.134;18.006;2023-02-21T14:42:33;11.00;;;2.50;;
77085;SDS011;66014;53.134;18.006;2023-02-21T14:45:16;11.90;;;3.00;;
77085;SDS011;66014;53.134;18.006;2023-02-21T14:48:02;14.40;;;2.60;;
77085;SDS011;66014;53.134;18.006;2023-02-21T15:02:12;15.00;;;3.40;;
77085;SDS011;66014;53.134;18.006;2023-02-21T15:10:31;12.90;;;3.00;;
77085;SDS011;66014;53.134;18.006;2023-02-21T15:13:05;12.80;;;2.60;;
77085;SDS011;66014;53.134;18.006;2023-02-21T15:15:33;17.20;;;4.90;;
77085;SDS011;66014;53.134;18.006;2023-02-21T15:18:08;19.90;;;5.90;;
77085;SDS011;66014;53.134;18.006;2023-02-21T15:20:40;14.80;;;4.70;;
77085;SDS011;66014;53.134;18.006;2023-02-21T15:23:20;15.80;;;4.40;;
77085;SDS011;66014;53.134;18.006;2023-02-21T15:25:55;14.60;;;3.40;;
77085;SDS011;66014;53.134;18.006;2023-02-21T15:28:25;26.10;;;6.00;;
77085;SDS011;66014;53.134;18.006;2023-02-21T15:30:56;17.00;;;3.90;;
77085;SDS011;66014;53.134;18.006;2023-02-21T15:33:32;25.80;;;7.70;;
77085;SDS011;66014;53.134;18.006;2023-02-21T15:36:07;25.80;;;6.50;;
77085;SDS011;66014;53.134;18.006;2023-02-21T15:39:03;23.60;;;6.50;;
77085;SDS011;66014;53.134;18.006;2023-02-21T15:41:41;21.20;;;7.80;;
77085;SDS011;66014;53.134;18.006;2023-02-21T15:44:12;15.00;;;4.80;;
77085;SDS011;66014;53.134;18.006;2023-02-21T15:47:08;16.10;;;4.80;;
77085;SDS011;66014;53.134;18.006;2023-02-21T15:49:43;25.20;;;7.70;;
77085;SDS011;66014;53.134;18.006;2023-02-21T15:52:27;16.90;;;5.60;;
77085;SDS011;66014;53.134;18.006;2023-02-21T16:00:34;16.80;;;5.20;;
77085;SDS011;66014;53.134;18.006;2023-02-21T16:05:54;16.00;;;4.30;;
77085;SDS011;66014;53.134;18.006;2023-02-21T16:11:25;22.70;;;6.90;;
77085;SDS011;66014;53.134;18.006;2023-02-21T16:16:42;16.30;;;4.70;;
77085;SDS011;66014;53.134;18.006;2023-02-21T16:19:09;18.60;;;6.40;;
77085;SDS011;66014;53.134;18.006;2023-02-21T16:21:36;21.30;;;6.90;;
77085;SDS011;66014;53.134;18.006;2023-02-21T16:27:10;23.00;;;7.50;;
77085;SDS011;66014;53.134;18.006;2023-02-21T16:29:39;22.00;;;5.90;;
77085;SDS011;66014;53.134;18.006;2023-02-21T16:32:14;27.40;;;6.60;;
77085;SDS011;66014;53.134;18.006;2023-02-21T16:34:45;74.10;;;21.20;;
77085;SDS011;66014;53.134;18.006;2023-02-21T16:37:12;45.30;;;13.70;;
77085;SDS011;66014;53.134;18.006;2023-02-21T16:39:41;25.00;;;7.50;;
77085;SDS011;66014;53.134;18.006;2023-02-21T16:42:08;48.70;;;16.50;;
77085;SDS011;66014;53.134;18.006;2023-02-21T16:44:37;23.80;;;8.90;;
77085;SDS011;66014;53.134;18.006;2023-02-21T16:47:04;26.00;;;9.50;;
77085;SDS011;66014;53.134;18.006;2023-02-21T16:49:32;38.70;;;14.70;;
77085;SDS011;66014;53.134;18.006;2023-02-21T16:52:02;38.90;;;16.80;;
77085;SDS011;66014;53.134;18.006;2023-02-21T16:54:29;30.40;;;11.60;;
77085;SDS011;66014;53.134;18.006;2023-02-21T16:56:57;36.40;;;12.30;;
77085;SDS011;66014;53.134;18.006;2023-02-21T16:59:28;32.40;;;16.30;;
77085;SDS011;66014;53.134;18.006;2023-02-21T17:01:56;22.40;;;11.10;;
77085;SDS011;66014;53.134;18.006;2023-02-21T17:04:40;29.50;;;13.60;;
77085;SDS011;66014;53.134;18.006;2023-02-21T17:07:08;33.60;;;12.80;;
77085;SDS011;66014;53.134;18.006;2023-02-21T17:09:37;47.90;;;17.20;;
77085;SDS011;66014;53.134;18.006;2023-02-21T17:12:10;41.20;;;12.10;;
77085;SDS011;66014;53.134;18.006;2023-02-21T17:14:38;29.60;;;9.50;;
77085;SDS011;66014;53.134;18.006;2023-02-21T17:17:05;33.60;;;13.90;;
77085;SDS011;66014;53.134;18.006;2023-02-21T17:19:31;51.10;;;24.80;;
77085;SDS011;66014;53.134;18.006;2023-02-21T17:21:58;65.30;;;31.80;;
77085;SDS011;66014;53.134;18.006;2023-02-21T17:24:25;59.20;;;31.90;;
77085;SDS011;66014;53.134;18.006;2023-02-21T17:26:54;46.70;;;21.00;;
77085;SDS011;66014;53.134;18.006;2023-02-21T17:29:21;39.60;;;15.80;;
77085;SDS011;66014;53.134;18.006;2023-02-21T17:31:51;36.50;;;13.80;;
77085;SDS011;66014;53.134;18.006;2023-02-21T17:34:20;37.90;;;13.80;;
77085;SDS011;66014;53.134;18.006;2023-02-21T17:36:50;32.30;;;12.40;;
77085;SDS011;66014;53.134;18.006;2023-02-21T17:39:20;34.10;;;15.00;;
77085;SDS011;66014;53.134;18.006;2023-02-21T17:41:50;29.90;;;13.20;;
77085;SDS011;66014;53.134;18.006;2023-02-21T17:44:17;28.50;;;10.10;;
77085;SDS011;66014;53.134;18.006;2023-02-21T17:46:48;29.50;;;12.20;;
77085;SDS011;66014;53.134;18.006;2023-02-21T17:49:18;26.50;;;8.30;;
77085;SDS011;66014;53.134;18.006;2023-02-21T17:51:54;25.50;;;7.40;;
77085;SDS011;66014;53.134;18.006;2023-02-21T17:54:22;41.30;;;13.60;;
77085;SDS011;66014;53.134;18.006;2023-02-21T17:56:50;25.80;;;7.90;;
77085;SDS011;66014;53.134;18.006;2023-02-21T17:59:17;29.50;;;9.50;;
77085;SDS011;66014;53.134;18.006;2023-02-21T18:01:44;23.60;;;7.90;;
77085;SDS011;66014;53.134;18.006;2023-02-21T18:04:11;33.60;;;12.40;;
77085;SDS011;66014;53.134;18.006;2023-02-21T18:06:39;26.10;;;9.30;;
77085;SDS011;66014;53.134;18.006;2023-02-21T18:09:07;37.30;;;10.70;;
77085;SDS011;66014;53.134;18.006;2023-02-21T18:11:34;26.60;;;9.50;;
77085;SDS011;66014;53.134;18.006;2023-02-21T18:14:02;32.30;;;9.00;;
77085;SDS011;66014;53.134;18.006;2023-02-21T18:16:29;25.20;;;7.20;;
77085;SDS011;66014;53.134;18.006;2023-02-21T18:18:56;18.10;;;5.30;;
77085;SDS011;66014;53.134;18.006;2023-02-21T18:21:23;25.70;;;6.20;;